createdAt,value
2022-09-28T00:03:39.136Z,6.80
2022-09-28T00:10:03.467Z,6.40
2022-09-28T00:16:27.828Z,5.90
2022-09-28T00:22:52.113Z,6.60
2022-09-28T00:29:16.550Z,6.50
2022-09-28T00:35:40.923Z,7.30
2022-09-28T00:42:07.719Z,6.00
2022-09-28T00:48:41.074Z,5.90
2022-09-28T00:55:05.308Z,5.30
2022-09-28T01:01:29.675Z,6.40
2022-09-28T01:07:54.549Z,6.90
2022-09-28T01:14:18.878Z,5.80
2022-09-28T01:20:48.938Z,6.20
2022-09-28T01:27:17.054Z,5.20
2022-09-28T01:40:00.744Z,5.60
2022-09-28T01:46:24.959Z,4.60
2022-09-28T01:52:52.102Z,5.50
2022-09-28T01:59:22.481Z,5.70
2022-09-28T02:05:58.674Z,4.30
2022-09-28T02:12:22.949Z,4.40
2022-09-28T02:18:47.214Z,5.20
2022-09-28T02:25:23.796Z,4.30
2022-09-28T02:31:48.088Z,4.20
2022-09-28T02:38:12.433Z,3.50
2022-09-28T02:44:48.495Z,5.60
2022-09-28T02:51:15.868Z,3.90
2022-09-28T02:57:46.023Z,4.20
2022-09-28T03:04:26.773Z,3.10
2022-09-28T03:11:09.653Z,3.90
2022-09-28T03:17:33.855Z,3.30
2022-09-28T03:23:58.039Z,3.50
2022-09-28T03:30:22.375Z,2.60
2022-09-28T03:36:49.536Z,6.80
2022-09-28T03:43:13.972Z,3.80
2022-09-28T03:49:38.286Z,3.20
2022-09-28T03:56:02.485Z,3.70
2022-09-28T04:02:26.890Z,3.10
2022-09-28T04:08:51.447Z,2.50
2022-09-28T04:15:15.742Z,2.70
2022-09-28T04:21:40.046Z,3.20
2022-09-28T04:28:05.286Z,2.50
2022-09-28T04:34:34.531Z,4.20
2022-09-28T04:40:52.550Z,3.60
2022-09-28T04:47:16.885Z,2.80
2022-09-28T04:53:56.409Z,3.40
2022-09-28T05:00:20.689Z,2.50
2022-09-28T05:06:45.172Z,2.10
2022-09-28T05:13:09.560Z,3.40
2022-09-28T05:19:36.503Z,3.10
2022-09-28T05:26:01.197Z,1.90
2022-09-28T05:32:25.485Z,1.90
2022-09-28T05:38:48.694Z,2.40
2022-09-28T05:45:13.073Z,2.50
2022-09-28T05:51:37.387Z,3.20
2022-09-28T05:58:01.694Z,2.90
2022-09-28T06:04:25.888Z,3.60
2022-09-28T06:10:50.212Z,2.30
2022-09-28T06:17:17.299Z,2.40
2022-09-28T06:23:45.611Z,3.10
2022-09-28T06:30:12.662Z,2.90
2022-09-28T06:36:37.147Z,3.30
2022-09-28T06:43:01.654Z,2.30
2022-09-28T06:49:24.499Z,3.90
2022-09-28T06:56:06.966Z,3.50
2022-09-28T07:02:31.300Z,3.50
2022-09-28T07:09:29.221Z,3.00
2022-09-28T07:16:04.386Z,4.60
2022-09-28T07:22:40.369Z,4.10
2022-09-28T07:29:07.384Z,2.70
2022-09-28T07:35:34.858Z,4.10
2022-09-28T07:42:03.059Z,3.60
2022-09-28T07:48:27.524Z,2.50
2022-09-28T07:54:54.534Z,2.30
2022-09-28T08:01:21.800Z,34.60
2022-09-28T08:07:48.850Z,20.50
2022-09-28T08:14:13.114Z,20.20
2022-09-28T08:20:50.794Z,16.00
2022-09-28T08:27:15.971Z,13.60
2022-09-28T08:33:39.167Z,14.90
2022-09-28T08:40:15.716Z,15.20
2022-09-28T08:46:40.063Z,14.40
2022-09-28T08:53:13.281Z,15.40
2022-09-28T08:59:52.340Z,12.80
2022-09-28T09:06:18.728Z,8.40
2022-09-28T09:12:46.145Z,10.60
2022-09-28T09:19:19.449Z,6.20
2022-09-28T09:25:49.332Z,5.80
2022-09-28T09:32:22.391Z,5.30
2022-09-28T09:38:48.005Z,5.80
2022-09-28T09:45:25.734Z,6.10
2022-09-28T09:51:58.948Z,4.60
2022-09-28T09:58:19.682Z,4.30
2022-09-28T10:04:44.017Z,5.20
2022-09-28T10:11:13.941Z,3.10
2022-09-28T10:17:38.496Z,4.80
2022-09-28T10:24:01.226Z,4.20
2022-09-28T10:30:25.547Z,2.20
2022-09-28T10:36:49.822Z,2.30
2022-09-28T10:43:14.162Z,3.30
2022-09-28T10:49:53.436Z,3.30
2022-09-28T10:56:23.662Z,2.90
2022-09-28T11:02:47.994Z,5.50
2022-09-28T11:09:12.351Z,7.40
2022-09-28T11:15:36.822Z,3.40
2022-09-28T11:22:22.213Z,5.00
2022-09-28T11:28:52.792Z,3.90
2022-09-28T11:35:26.415Z,4.20
2022-09-28T11:41:53.866Z,3.40
2022-09-28T11:48:27.513Z,3.80
2022-09-28T11:54:51.824Z,4.60
2022-09-28T12:01:19.279Z,3.00
2022-09-28T12:07:44.514Z,2.30
2022-09-28T12:14:04.662Z,2.90
2022-09-28T12:20:28.558Z,2.40
2022-09-28T12:27:04.669Z,2.30
2022-09-28T12:33:53.074Z,6.90
2022-09-28T12:40:23.143Z,3.70
2022-09-28T12:47:02.520Z,3.40
2022-09-28T12:53:44.258Z,1.90
2022-09-28T13:00:11.334Z,2.50
2022-09-28T13:06:49.769Z,4.80
2022-09-28T13:13:29.482Z,3.30
2022-09-28T13:19:59.595Z,10.30
2022-09-28T13:26:23.919Z,11.10
2022-09-28T13:32:48.186Z,9.10
2022-09-28T13:39:24.263Z,20.30
2022-09-28T13:45:50.825Z,22.00
2022-09-28T13:52:30.189Z,19.50
2022-09-28T13:58:57.290Z,20.80
2022-09-28T14:05:33.608Z,20.60
2022-09-28T14:12:13.078Z,22.40
2022-09-28T14:19:01.673Z,20.00
2022-09-28T14:25:28.516Z,17.50
2022-09-28T14:31:56.026Z,20.10
2022-09-28T14:38:18.992Z,13.70
2022-09-28T14:44:52.103Z,14.30
2022-09-28T14:51:19.166Z,10.50
2022-09-28T14:57:46.472Z,15.10
2022-09-28T15:04:10.879Z,13.50
2022-09-28T15:10:35.576Z,11.20
2022-09-28T15:16:59.925Z,9.30
2022-09-28T15:23:20.033Z,9.60
2022-09-28T15:29:44.421Z,3.90
2022-09-28T15:36:14.604Z,9.60
2022-09-28T15:42:39.105Z,8.90
2022-09-28T15:49:38.182Z,7.80
2022-09-28T15:56:06.118Z,10.10
2022-09-28T16:02:30.504Z,12.70
2022-09-28T16:09:00.767Z,5.90
2022-09-28T16:15:25.067Z,6.90
2022-09-28T16:21:49.383Z,7.10
2022-09-28T16:28:33.638Z,5.00
2022-09-28T16:35:01.862Z,5.20
2022-09-28T16:41:26.129Z,6.60
2022-09-28T16:47:50.391Z,4.00
2022-09-28T16:54:15.637Z,6.10
2022-09-28T17:00:39.946Z,5.70
2022-09-28T17:07:04.472Z,6.10
2022-09-28T17:13:28.739Z,5.90
2022-09-28T17:19:58.655Z,5.10
2022-09-28T17:26:23.425Z,5.20
2022-09-28T17:32:47.648Z,6.10
2022-09-28T17:39:11.945Z,5.50
2022-09-28T17:45:36.269Z,5.30
2022-09-28T17:51:53.266Z,6.40
2022-09-28T17:58:17.505Z,5.00
2022-09-28T18:04:51.747Z,11.20
2022-09-28T18:11:16.891Z,5.70
2022-09-28T18:17:41.488Z,6.20
2022-09-28T18:24:05.718Z,6.70
2022-09-28T18:30:30.090Z,6.80
2022-09-28T18:36:54.263Z,9.00
2022-09-28T18:43:18.532Z,6.90
2022-09-28T18:49:46.545Z,5.90
2022-09-28T18:56:11.303Z,5.20
2022-09-28T19:02:35.699Z,5.50
2022-09-28T19:09:00.205Z,4.60
2022-09-28T19:15:24.587Z,6.80
2022-09-28T19:21:48.800Z,4.50
2022-09-28T19:28:13.538Z,7.10
2022-09-28T19:34:37.818Z,6.40
2022-09-28T19:41:02.216Z,7.60
2022-09-28T19:47:29.638Z,5.40
2022-09-28T19:53:53.926Z,6.10
2022-09-28T20:00:18.271Z,6.00
2022-09-28T20:06:42.567Z,5.80
2022-09-28T20:13:06.876Z,5.70
2022-09-28T20:19:31.160Z,6.30
2022-09-28T20:25:55.374Z,6.90
2022-09-28T20:32:19.601Z,6.50
2022-09-28T20:38:43.996Z,6.10
2022-09-28T20:45:08.186Z,5.20
2022-09-28T20:51:41.245Z,5.80
2022-09-28T20:58:05.527Z,6.40
2022-09-28T21:04:28.833Z,7.20
2022-09-28T21:10:53.144Z,5.20
2022-09-28T21:17:17.459Z,5.10
2022-09-28T21:23:41.719Z,6.90
2022-09-28T21:30:06.066Z,7.20
2022-09-28T21:36:30.277Z,4.70
2022-09-28T21:42:54.705Z,5.20
2022-09-28T21:49:18.950Z,5.20
2022-09-28T21:55:43.240Z,4.90
2022-09-28T22:02:07.775Z,7.10
2022-09-28T22:08:32.154Z,4.80
2022-09-28T22:14:56.465Z,6.10
2022-09-28T22:21:20.611Z,4.90
2022-09-28T22:27:44.982Z,4.50
2022-09-28T22:34:09.264Z,5.30
2022-09-28T22:40:33.601Z,6.00
2022-09-28T22:47:07.153Z,5.00
2022-09-28T22:53:22.922Z,7.00
2022-09-28T22:59:47.167Z,5.60
2022-09-28T23:06:11.564Z,5.40
2022-09-28T23:12:35.850Z,4.50
2022-09-28T23:19:02.978Z,4.80
2022-09-28T23:25:27.278Z,4.70
2022-09-28T23:31:54.744Z,4.30
2022-09-28T23:38:19.066Z,4.40
2022-09-28T23:44:45.645Z,6.30
2022-09-28T23:51:10.232Z,6.20
2022-09-28T23:57:34.542Z,5.60
